createdAt,value
2022-11-26T00:02:24.000Z,276.39
2022-11-26T00:03:51.000Z,276.36
2022-11-26T00:05:57.000Z,276.36
2022-11-26T00:07:23.000Z,276.33
2022-11-26T00:09:30.000Z,276.3
2022-11-26T00:10:56.000Z,276.28
2022-11-26T00:13:02.000Z,276.26
2022-11-26T00:14:29.000Z,276.25
2022-11-26T00:16:35.000Z,276.23
2022-11-26T00:18:01.000Z,276.19
2022-11-26T00:20:07.000Z,276.15
2022-11-26T00:21:34.000Z,276.11
2022-11-26T00:23:40.000Z,276.08
2022-11-26T00:25:06.000Z,276.07
2022-11-26T00:27:13.000Z,276.06
2022-11-26T00:28:39.000Z,276.03
2022-11-26T00:30:45.000Z,276.02
2022-11-26T00:32:12.000Z,275.96
2022-11-26T00:34:18.000Z,275.94
2022-11-26T00:35:44.000Z,275.89
2022-11-26T00:37:51.000Z,275.87
2022-11-26T00:40:42.000Z,275.82
2022-11-26T00:42:08.000Z,275.8
2022-11-26T00:44:14.000Z,275.78
2022-11-26T00:45:41.000Z,275.75
2022-11-26T00:47:47.000Z,275.74
2022-11-26T00:49:13.000Z,275.74
2022-11-26T00:51:20.000Z,275.71
2022-11-26T00:52:46.000Z,275.7
2022-11-26T00:54:52.000Z,275.7
2022-11-26T00:56:19.000Z,275.67
2022-11-26T00:58:25.000Z,275.66
2022-11-26T00:59:51.000Z,275.66
2022-11-26T01:01:57.000Z,275.63
2022-11-26T01:03:24.000Z,275.64
2022-11-26T01:05:30.000Z,275.64
2022-11-26T01:06:57.000Z,275.66
2022-11-26T01:09:03.000Z,275.69
2022-11-26T01:10:29.000Z,275.69
2022-11-26T01:12:35.000Z,275.67
2022-11-26T01:14:02.000Z,275.7
2022-11-26T01:16:08.000Z,275.71
2022-11-26T01:18:59.000Z,275.73
2022-11-26T01:20:26.000Z,275.73
2022-11-26T01:22:32.000Z,275.73
2022-11-26T01:23:59.000Z,275.71
2022-11-26T01:26:05.000Z,275.73
2022-11-26T01:27:33.000Z,275.74
2022-11-26T01:29:39.000Z,275.74
2022-11-26T01:31:05.000Z,275.73
2022-11-26T01:33:11.000Z,275.73
2022-11-26T01:34:38.000Z,275.71
2022-11-26T01:36:44.000Z,275.71
2022-11-26T01:38:11.000Z,275.74
2022-11-26T01:40:17.000Z,275.74
2022-11-26T01:41:43.000Z,275.74
2022-11-26T01:43:49.000Z,275.73
2022-11-26T01:45:16.000Z,275.73
2022-11-26T01:47:22.000Z,275.73
2022-11-26T01:48:48.000Z,275.73
2022-11-26T01:50:55.000Z,275.7
2022-11-26T01:52:21.000Z,275.7
2022-11-26T01:54:27.000Z,275.7
2022-11-26T01:57:19.000Z,275.71
2022-11-26T01:58:45.000Z,275.73
2022-11-26T02:00:51.000Z,275.73
2022-11-26T02:02:18.000Z,275.75
2022-11-26T02:04:24.000Z,275.74
2022-11-26T02:05:51.000Z,275.75
2022-11-26T02:07:57.000Z,275.78
2022-11-26T02:09:23.000Z,275.78
2022-11-26T02:11:29.000Z,275.8
2022-11-26T02:12:56.000Z,275.8
2022-11-26T02:15:02.000Z,275.82
2022-11-26T02:16:29.000Z,275.82
2022-11-26T02:18:35.000Z,275.82
2022-11-26T02:20:01.000Z,275.84
2022-11-26T02:22:07.000Z,275.85
2022-11-26T02:23:34.000Z,275.87
2022-11-26T02:25:40.000Z,275.88
2022-11-26T02:27:06.000Z,275.89
2022-11-26T02:29:13.000Z,275.88
2022-11-26T02:30:39.000Z,275.89
2022-11-26T02:32:45.000Z,275.91
2022-11-26T02:35:36.000Z,275.95
2022-11-26T02:37:03.000Z,275.99
2022-11-26T02:39:09.000Z,276
2022-11-26T02:40:36.000Z,276.06
2022-11-26T02:42:42.000Z,276.04
2022-11-26T02:44:08.000Z,276.1
2022-11-26T02:46:14.000Z,276.11
2022-11-26T02:47:41.000Z,276.18
2022-11-26T02:49:47.000Z,276.22
2022-11-26T02:51:14.000Z,276.25
2022-11-26T02:53:20.000Z,276.26
2022-11-26T02:54:46.000Z,276.29
2022-11-26T02:56:52.000Z,276.29
2022-11-26T02:58:19.000Z,276.35
2022-11-26T03:00:25.000Z,276.39
2022-11-26T03:01:52.000Z,276.39
2022-11-26T03:03:58.000Z,276.35
2022-11-26T03:05:24.000Z,276.32
2022-11-26T03:07:30.000Z,276.28
2022-11-26T03:08:57.000Z,276.25
2022-11-26T03:11:03.000Z,276.23
2022-11-26T03:13:54.000Z,276.18
2022-11-26T03:15:21.000Z,276.14
2022-11-26T03:17:27.000Z,276.11
2022-11-26T03:18:54.000Z,276.07
2022-11-26T03:21:00.000Z,276.06
2022-11-26T03:22:26.000Z,276.03
2022-11-26T03:24:32.000Z,276
2022-11-26T03:25:59.000Z,275.95
2022-11-26T03:28:05.000Z,275.92
2022-11-26T03:29:31.000Z,275.89
2022-11-26T03:31:37.000Z,275.88
2022-11-26T03:33:04.000Z,275.85
2022-11-26T03:35:10.000Z,275.81
2022-11-26T03:36:37.000Z,275.8
2022-11-26T03:38:43.000Z,275.78
2022-11-26T03:40:09.000Z,275.77
2022-11-26T03:42:15.000Z,275.75
2022-11-26T03:43:42.000Z,275.78
2022-11-26T03:45:48.000Z,275.78
2022-11-26T03:47:15.000Z,275.77
2022-11-26T03:49:21.000Z,275.74
2022-11-26T03:52:12.000Z,275.7
2022-11-26T03:53:38.000Z,275.66
2022-11-26T03:55:44.000Z,275.63
2022-11-26T03:57:11.000Z,275.59
2022-11-26T03:59:17.000Z,275.57
2022-11-26T04:00:44.000Z,275.52
2022-11-26T04:02:50.000Z,275.48
2022-11-26T04:04:16.000Z,275.43
2022-11-26T04:06:22.000Z,275.42
2022-11-26T04:07:49.000Z,275.38
2022-11-26T04:09:55.000Z,275.35
2022-11-26T04:11:22.000Z,275.32
2022-11-26T04:13:28.000Z,275.3
2022-11-26T04:14:54.000Z,275.24
2022-11-26T04:17:00.000Z,275.2
2022-11-26T04:18:27.000Z,275.17
2022-11-26T04:20:33.000Z,275.19
2022-11-26T04:22:00.000Z,275.13
2022-11-26T04:24:06.000Z,275.1
2022-11-26T04:25:32.000Z,275.08
2022-11-26T04:27:38.000Z,275.05
2022-11-26T04:30:30.000Z,274.98
2022-11-26T04:31:56.000Z,274.95
2022-11-26T04:34:02.000Z,274.94
2022-11-26T04:35:29.000Z,274.91
2022-11-26T04:37:35.000Z,274.88
2022-11-26T04:39:01.000Z,274.85
2022-11-26T04:41:08.000Z,274.83
2022-11-26T04:42:34.000Z,274.8
2022-11-26T04:44:40.000Z,274.77
2022-11-26T04:46:07.000Z,274.73
2022-11-26T04:48:13.000Z,274.71
2022-11-26T04:49:40.000Z,274.68
2022-11-26T04:51:46.000Z,274.65
2022-11-26T04:53:12.000Z,274.58
2022-11-26T04:55:18.000Z,274.56
2022-11-26T04:56:45.000Z,274.51
2022-11-26T04:58:51.000Z,274.5
2022-11-26T05:00:17.000Z,274.49
2022-11-26T05:02:24.000Z,274.47
2022-11-26T05:03:50.000Z,274.47
2022-11-26T05:05:56.000Z,274.49
2022-11-26T05:08:47.000Z,274.5
2022-11-26T05:10:14.000Z,274.49
2022-11-26T05:12:20.000Z,274.49
2022-11-26T05:13:46.000Z,274.49
2022-11-26T05:15:53.000Z,274.46
2022-11-26T05:17:19.000Z,274.43
2022-11-26T05:19:25.000Z,274.4
2022-11-26T05:20:52.000Z,274.38
2022-11-26T05:22:58.000Z,274.33
2022-11-26T05:24:24.000Z,274.32
2022-11-26T05:26:30.000Z,274.31
2022-11-26T05:27:57.000Z,274.28
2022-11-26T05:30:03.000Z,274.26
2022-11-26T05:31:30.000Z,274.25
2022-11-26T05:33:36.000Z,274.26
2022-11-26T05:35:02.000Z,274.31
2022-11-26T05:37:08.000Z,274.35
2022-11-26T05:38:35.000Z,274.39
2022-11-26T05:40:41.000Z,274.39
2022-11-26T05:42:08.000Z,274.38
2022-11-26T05:44:15.000Z,274.35
2022-11-26T05:47:06.000Z,274.32
2022-11-26T05:48:33.000Z,274.32
2022-11-26T05:50:39.000Z,274.29
2022-11-26T05:52:05.000Z,274.26
2022-11-26T05:54:11.000Z,274.22
2022-11-26T05:55:38.000Z,274.22
2022-11-26T05:57:44.000Z,274.21
2022-11-26T05:59:10.000Z,274.21
2022-11-26T06:01:17.000Z,274.21
2022-11-26T06:02:43.000Z,274.17
2022-11-26T06:04:50.000Z,274.15
2022-11-26T06:06:16.000Z,274.15
2022-11-26T06:08:22.000Z,274.15
2022-11-26T06:09:49.000Z,274.15
2022-11-26T06:11:55.000Z,274.12
2022-11-26T06:13:21.000Z,274.14
2022-11-26T06:15:27.000Z,274.14
2022-11-26T06:16:54.000Z,274.14
2022-11-26T06:19:00.000Z,274.12
2022-11-26T06:20:27.000Z,274.14
2022-11-26T06:22:33.000Z,274.11
2022-11-26T06:25:24.000Z,274.11
2022-11-26T06:26:50.000Z,274.1
2022-11-26T06:28:56.000Z,274.11
2022-11-26T06:30:23.000Z,274.08
2022-11-26T06:32:29.000Z,274.08
2022-11-26T06:33:55.000Z,274.06
2022-11-26T06:36:01.000Z,274.04
2022-11-26T06:37:28.000Z,274.04
2022-11-26T06:39:34.000Z,274.01
2022-11-26T06:41:01.000Z,273.99
2022-11-26T06:43:07.000Z,273.97
2022-11-26T06:44:33.000Z,273.94
2022-11-26T06:46:39.000Z,273.92
2022-11-26T06:48:06.000Z,273.88
2022-11-26T06:50:12.000Z,273.84
2022-11-26T06:51:38.000Z,273.78
2022-11-26T06:53:44.000Z,273.77
2022-11-26T06:55:11.000Z,273.75
2022-11-26T06:57:17.000Z,273.73
2022-11-26T06:58:43.000Z,273.7
2022-11-26T07:00:50.000Z,273.68
2022-11-26T07:03:41.000Z,273.66
2022-11-26T07:05:07.000Z,273.66
2022-11-26T07:07:13.000Z,273.61
2022-11-26T07:08:40.000Z,273.61
2022-11-26T07:10:46.000Z,273.57
2022-11-26T07:12:15.000Z,273.56
2022-11-26T07:14:21.000Z,273.54
2022-11-26T07:15:48.000Z,273.59
2022-11-26T07:17:54.000Z,273.59
2022-11-26T07:19:21.000Z,273.6
2022-11-26T07:21:27.000Z,273.6
2022-11-26T07:22:53.000Z,273.57
2022-11-26T07:24:59.000Z,273.59
2022-11-26T07:26:26.000Z,273.6
2022-11-26T07:28:32.000Z,273.57
2022-11-26T07:29:58.000Z,273.6
2022-11-26T07:32:04.000Z,273.63
2022-11-26T07:33:31.000Z,273.63
2022-11-26T07:35:37.000Z,273.61
2022-11-26T07:37:04.000Z,273.61
2022-11-26T07:39:10.000Z,273.61
2022-11-26T07:42:01.000Z,273.66
2022-11-26T07:43:27.000Z,273.68
2022-11-26T07:45:34.000Z,273.71
2022-11-26T07:47:00.000Z,273.74
2022-11-26T07:49:06.000Z,273.77
2022-11-26T07:50:33.000Z,273.78
2022-11-26T07:52:39.000Z,273.82
2022-11-26T07:54:05.000Z,273.85
2022-11-26T07:56:11.000Z,273.88
2022-11-26T07:57:38.000Z,273.92
2022-11-26T07:59:44.000Z,273.94
2022-11-26T08:01:11.000Z,273.94
2022-11-26T08:03:17.000Z,273.96
2022-11-26T08:04:43.000Z,273.99
2022-11-26T08:06:49.000Z,274
2022-11-26T08:08:16.000Z,274.01
2022-11-26T08:10:22.000Z,274.04
2022-11-26T08:11:49.000Z,274.07
2022-11-26T08:13:55.000Z,274.1
2022-11-26T08:15:22.000Z,274.12
2022-11-26T08:17:28.000Z,274.15
2022-11-26T08:20:19.000Z,274.22
2022-11-26T08:21:51.000Z,274.26
2022-11-26T08:23:57.000Z,274.28
2022-11-26T08:25:23.000Z,274.31
2022-11-26T08:27:30.000Z,274.33
2022-11-26T08:28:56.000Z,274.38
2022-11-26T08:31:02.000Z,274.4
2022-11-26T08:32:29.000Z,274.43
2022-11-26T08:34:35.000Z,274.47
2022-11-26T08:36:02.000Z,274.53
2022-11-26T08:38:13.000Z,274.59
2022-11-26T08:39:40.000Z,274.61
2022-11-26T08:41:46.000Z,274.64
2022-11-26T08:43:18.000Z,274.68
2022-11-26T08:45:25.000Z,274.71
2022-11-26T08:46:51.000Z,274.72
2022-11-26T08:48:57.000Z,274.71
2022-11-26T08:50:24.000Z,274.76
2022-11-26T08:52:30.000Z,274.77
2022-11-26T08:53:56.000Z,274.77
2022-11-26T08:56:03.000Z,274.78
2022-11-26T08:58:57.000Z,274.83
2022-11-26T09:00:24.000Z,274.83
2022-11-26T09:02:30.000Z,274.85
2022-11-26T09:03:56.000Z,274.87
2022-11-26T09:06:02.000Z,274.87
2022-11-26T09:07:29.000Z,274.87
2022-11-26T09:09:35.000Z,274.87
2022-11-26T09:11:02.000Z,274.9
2022-11-26T09:13:08.000Z,274.9
2022-11-26T09:14:34.000Z,274.92
2022-11-26T09:16:40.000Z,274.97
2022-11-26T09:18:07.000Z,275.02
2022-11-26T09:20:13.000Z,275.09
2022-11-26T09:21:40.000Z,275.17
2022-11-26T09:23:46.000Z,275.24
2022-11-26T09:25:13.000Z,275.27
2022-11-26T09:27:19.000Z,275.32
2022-11-26T09:28:45.000Z,275.34
2022-11-26T09:30:52.000Z,275.38
2022-11-26T09:32:18.000Z,275.41
2022-11-26T09:34:38.000Z,275.48
2022-11-26T09:37:30.000Z,275.5
2022-11-26T09:38:56.000Z,275.6
2022-11-26T09:41:03.000Z,275.62
2022-11-26T09:42:29.000Z,275.67
2022-11-26T09:44:35.000Z,275.73
2022-11-26T09:46:02.000Z,275.8
2022-11-26T09:48:08.000Z,275.87
2022-11-26T09:49:34.000Z,275.92
2022-11-26T09:51:41.000Z,275.99
2022-11-26T09:53:07.000Z,276.03
2022-11-26T09:55:13.000Z,276.07
2022-11-26T09:56:40.000Z,276.14
2022-11-26T09:58:46.000Z,276.22
2022-11-26T10:00:12.000Z,276.25
2022-11-26T10:02:18.000Z,276.3
2022-11-26T10:03:45.000Z,276.33
2022-11-26T10:05:51.000Z,276.36
2022-11-26T10:07:18.000Z,276.39
2022-11-26T10:09:24.000Z,276.47
2022-11-26T10:10:50.000Z,276.53
2022-11-26T10:12:56.000Z,276.57
2022-11-26T10:16:09.000Z,276.68
2022-11-26T10:17:36.000Z,276.73
2022-11-26T10:19:42.000Z,276.8
2022-11-26T10:21:09.000Z,276.84
2022-11-26T10:23:15.000Z,276.9
2022-11-26T10:24:41.000Z,276.97
2022-11-26T10:26:48.000Z,277.04
2022-11-26T10:28:15.000Z,277.12
2022-11-26T10:30:21.000Z,277.18
2022-11-26T10:31:47.000Z,277.26
2022-11-26T10:33:53.000Z,277.31
2022-11-26T10:35:20.000Z,277.4
2022-11-26T10:37:26.000Z,277.48
2022-11-26T10:38:53.000Z,277.53
2022-11-26T10:40:59.000Z,277.52
2022-11-26T10:42:25.000Z,277.6
2022-11-26T10:44:31.000Z,277.6
2022-11-26T10:45:58.000Z,277.65
2022-11-26T10:48:04.000Z,277.67
2022-11-26T10:49:30.000Z,277.7
2022-11-26T10:51:36.000Z,277.77
2022-11-26T10:54:28.000Z,277.82
2022-11-26T10:55:54.000Z,277.91
2022-11-26T10:58:00.000Z,278.04
2022-11-26T10:59:27.000Z,278.22
2022-11-26T11:01:33.000Z,278.36
2022-11-26T11:02:59.000Z,278.51
2022-11-26T11:05:06.000Z,278.58
2022-11-26T11:06:32.000Z,278.68
2022-11-26T11:08:38.000Z,278.78
2022-11-26T11:10:05.000Z,278.81
2022-11-26T11:12:11.000Z,278.79
2022-11-26T11:13:37.000Z,278.81
2022-11-26T11:15:43.000Z,278.81
2022-11-26T11:17:10.000Z,278.85
2022-11-26T11:19:16.000Z,278.86
2022-11-26T11:20:42.000Z,278.93
2022-11-26T11:22:48.000Z,278.93
2022-11-26T11:24:18.000Z,279.01
2022-11-26T11:26:24.000Z,279.08
2022-11-26T11:27:50.000Z,279.15
2022-11-26T11:29:56.000Z,279.22
2022-11-26T11:32:48.000Z,279.38
2022-11-26T11:34:14.000Z,279.45
2022-11-26T11:36:20.000Z,279.47
2022-11-26T11:37:47.000Z,279.55
2022-11-26T11:39:53.000Z,279.59
2022-11-26T11:41:19.000Z,279.69
2022-11-26T11:43:25.000Z,279.74
2022-11-26T11:44:52.000Z,279.84
2022-11-26T11:46:58.000Z,279.86
2022-11-26T11:48:24.000Z,279.86
2022-11-26T11:50:31.000Z,279.88
2022-11-26T11:51:57.000Z,279.89
2022-11-26T11:54:03.000Z,279.88
2022-11-26T11:55:30.000Z,279.85
2022-11-26T11:57:36.000Z,279.85
2022-11-26T11:59:03.000Z,279.81
2022-11-26T12:01:09.000Z,279.8
2022-11-26T12:02:35.000Z,279.81
2022-11-26T12:04:41.000Z,279.82
2022-11-26T12:06:09.000Z,279.82
2022-11-26T12:08:15.000Z,279.82
2022-11-26T12:11:06.000Z,279.81
2022-11-26T12:12:32.000Z,279.8
2022-11-26T12:14:38.000Z,279.8
2022-11-26T12:16:05.000Z,279.8
2022-11-26T12:18:11.000Z,279.81
2022-11-26T12:19:38.000Z,279.84
2022-11-26T12:21:44.000Z,279.89
2022-11-26T12:23:10.000Z,279.93
2022-11-26T12:25:21.000Z,279.98
2022-11-26T12:26:47.000Z,280
2022-11-26T12:28:53.000Z,279.95
2022-11-26T12:30:20.000Z,279.91
2022-11-26T12:32:26.000Z,279.91
2022-11-26T12:33:53.000Z,279.88
2022-11-26T12:35:59.000Z,279.88
2022-11-26T12:37:25.000Z,279.86
2022-11-26T12:39:32.000Z,279.85
2022-11-26T12:40:58.000Z,279.82
2022-11-26T12:43:04.000Z,279.82
2022-11-26T12:44:31.000Z,279.8
2022-11-26T12:46:37.000Z,279.8
2022-11-26T12:49:28.000Z,279.73
2022-11-26T12:50:54.000Z,279.72
2022-11-26T12:53:00.000Z,279.73
2022-11-26T12:54:27.000Z,279.72
2022-11-26T12:56:33.000Z,279.72
2022-11-26T12:57:59.000Z,279.74
2022-11-26T13:00:05.000Z,279.74
2022-11-26T13:01:32.000Z,279.76
2022-11-26T13:03:38.000Z,279.74
2022-11-26T13:05:05.000Z,279.73
2022-11-26T13:07:11.000Z,279.7
2022-11-26T13:08:38.000Z,279.69
2022-11-26T13:10:44.000Z,279.67
2022-11-26T13:12:10.000Z,279.67
2022-11-26T13:14:16.000Z,279.67
2022-11-26T13:15:43.000Z,279.66
2022-11-26T13:17:49.000Z,279.66
2022-11-26T13:19:15.000Z,279.66
2022-11-26T13:21:22.000Z,279.66
2022-11-26T13:22:48.000Z,279.66
2022-11-26T13:24:54.000Z,279.66
2022-11-26T13:27:45.000Z,279.66
2022-11-26T13:29:12.000Z,279.66
2022-11-26T13:31:18.000Z,279.67
2022-11-26T13:32:45.000Z,279.7
2022-11-26T13:34:51.000Z,279.7
2022-11-26T13:36:17.000Z,279.74
2022-11-26T13:38:23.000Z,279.8
2022-11-26T13:39:50.000Z,279.81
2022-11-26T13:41:56.000Z,279.84
2022-11-26T13:43:23.000Z,279.88
2022-11-26T13:45:29.000Z,279.88
2022-11-26T13:46:55.000Z,279.88
2022-11-26T13:49:01.000Z,279.88
2022-11-26T13:50:28.000Z,279.89
2022-11-26T13:52:34.000Z,279.91
2022-11-26T13:54:00.000Z,279.89
2022-11-26T13:56:07.000Z,279.92
2022-11-26T13:57:33.000Z,279.89
2022-11-26T13:59:39.000Z,279.88
2022-11-26T14:01:06.000Z,279.88
2022-11-26T14:03:12.000Z,279.86
2022-11-26T14:06:03.000Z,279.85
2022-11-26T14:07:34.000Z,279.85
2022-11-26T14:09:40.000Z,279.85
2022-11-26T14:11:07.000Z,279.82
2022-11-26T14:13:13.000Z,279.8
2022-11-26T14:14:40.000Z,279.77
2022-11-26T14:16:46.000Z,279.74
2022-11-26T14:18:13.000Z,279.74
2022-11-26T14:20:19.000Z,279.72
2022-11-26T14:21:46.000Z,279.7
2022-11-26T14:23:52.000Z,279.67
2022-11-26T14:25:18.000Z,279.63
2022-11-26T14:27:24.000Z,279.6
2022-11-26T14:28:51.000Z,279.56
2022-11-26T14:30:57.000Z,279.55
2022-11-26T14:32:24.000Z,279.52
2022-11-26T14:34:30.000Z,279.51
2022-11-26T14:35:56.000Z,279.47
2022-11-26T14:38:02.000Z,279.45
2022-11-26T14:39:29.000Z,279.41
2022-11-26T14:41:35.000Z,279.38
2022-11-26T14:44:26.000Z,279.31
2022-11-26T14:45:53.000Z,279.28
2022-11-26T14:47:59.000Z,279.27
2022-11-26T14:49:25.000Z,279.23
2022-11-26T14:51:32.000Z,279.22
2022-11-26T14:52:58.000Z,279.17
2022-11-26T14:55:04.000Z,279.16
2022-11-26T14:56:31.000Z,279.12
2022-11-26T14:58:37.000Z,279.09
2022-11-26T15:00:03.000Z,279.06
2022-11-26T15:02:09.000Z,279.05
2022-11-26T15:03:36.000Z,279.05
2022-11-26T15:05:42.000Z,279.02
2022-11-26T15:07:11.000Z,278.99
2022-11-26T15:09:17.000Z,278.97
2022-11-26T15:10:44.000Z,278.94
2022-11-26T15:12:50.000Z,278.92
2022-11-26T15:14:16.000Z,278.88
2022-11-26T15:16:22.000Z,278.88
2022-11-26T15:17:49.000Z,278.85
2022-11-26T15:19:55.000Z,278.81
2022-11-26T15:22:47.000Z,278.76
2022-11-26T15:24:13.000Z,278.76
2022-11-26T15:26:19.000Z,278.75
2022-11-26T15:27:46.000Z,278.74
2022-11-26T15:29:52.000Z,278.72
2022-11-26T15:31:19.000Z,278.71
2022-11-26T15:33:25.000Z,278.69
2022-11-26T15:34:51.000Z,278.67
2022-11-26T15:36:57.000Z,278.64
2022-11-26T15:38:24.000Z,278.61
2022-11-26T15:40:30.000Z,278.56
2022-11-26T15:41:56.000Z,278.53
2022-11-26T15:44:03.000Z,278.47
2022-11-26T15:45:29.000Z,278.43
2022-11-26T15:47:35.000Z,278.36
2022-11-26T15:49:02.000Z,278.3
2022-11-26T15:51:08.000Z,278.29
2022-11-26T15:52:34.000Z,278.26
2022-11-26T15:54:40.000Z,278.22
2022-11-26T15:56:38.000Z,278.2
2022-11-26T15:58:44.000Z,278.18
2022-11-26T16:01:35.000Z,278.16
2022-11-26T16:03:02.000Z,278.14
2022-11-26T16:05:08.000Z,278.1
2022-11-26T16:06:35.000Z,278.07
2022-11-26T16:08:41.000Z,278.04
2022-11-26T16:10:07.000Z,278
2022-11-26T16:12:13.000Z,277.97
2022-11-26T16:13:40.000Z,277.95
2022-11-26T16:15:46.000Z,277.93
2022-11-26T16:17:12.000Z,277.91
2022-11-26T16:19:19.000Z,277.91
2022-11-26T16:20:45.000Z,277.89
2022-11-26T16:22:51.000Z,277.88
2022-11-26T16:24:18.000Z,277.88
2022-11-26T16:26:24.000Z,277.88
2022-11-26T16:27:50.000Z,277.88
2022-11-26T16:29:56.000Z,277.88
2022-11-26T16:31:23.000Z,277.86
2022-11-26T16:33:29.000Z,277.86
2022-11-26T16:34:56.000Z,277.86
2022-11-26T16:37:02.000Z,277.85
2022-11-26T16:39:53.000Z,277.84
2022-11-26T16:41:19.000Z,277.82
2022-11-26T16:43:26.000Z,277.79
2022-11-26T16:44:52.000Z,277.77
2022-11-26T16:46:58.000Z,277.75
2022-11-26T16:48:25.000Z,277.72
2022-11-26T16:50:31.000Z,277.71
2022-11-26T16:51:58.000Z,277.7
2022-11-26T16:54:04.000Z,277.7
2022-11-26T16:55:30.000Z,277.68
2022-11-26T16:57:36.000Z,277.68
2022-11-26T16:59:03.000Z,277.63
2022-11-26T17:01:09.000Z,277.6
2022-11-26T17:02:35.000Z,277.55
2022-11-26T17:04:42.000Z,277.49
2022-11-26T17:06:08.000Z,277.49
2022-11-26T17:08:14.000Z,277.49
2022-11-26T17:09:41.000Z,277.48
2022-11-26T17:11:48.000Z,277.48
2022-11-26T17:13:14.000Z,277.48
2022-11-26T17:15:20.000Z,277.49
2022-11-26T17:18:11.000Z,277.52
2022-11-26T17:19:38.000Z,277.55
2022-11-26T17:21:44.000Z,277.61
2022-11-26T17:23:11.000Z,277.65
2022-11-26T17:25:17.000Z,277.67
2022-11-26T17:26:43.000Z,277.72
2022-11-26T17:28:49.000Z,277.75
2022-11-26T17:30:16.000Z,277.78
2022-11-26T17:32:22.000Z,277.81
2022-11-26T17:33:48.000Z,277.82
2022-11-26T17:35:55.000Z,277.84
2022-11-26T17:37:21.000Z,277.85
2022-11-26T17:39:27.000Z,277.85
2022-11-26T17:40:54.000Z,277.89
2022-11-26T17:43:00.000Z,277.91
2022-11-26T17:44:26.000Z,277.89
2022-11-26T17:46:32.000Z,277.92
2022-11-26T17:48:20.000Z,277.89
2022-11-26T17:50:32.000Z,277.89
2022-11-26T17:51:59.000Z,277.88
2022-11-26T17:54:05.000Z,277.85
2022-11-26T17:56:56.000Z,277.88
2022-11-26T17:58:23.000Z,277.88
2022-11-26T18:00:29.000Z,277.86
2022-11-26T18:01:55.000Z,277.91
2022-11-26T18:04:02.000Z,277.93
2022-11-26T18:05:28.000Z,277.95
2022-11-26T18:07:34.000Z,277.97
2022-11-26T18:09:01.000Z,277.97
2022-11-26T18:11:07.000Z,277.97
2022-11-26T18:12:33.000Z,277.97
2022-11-26T18:14:40.000Z,277.97
2022-11-26T18:16:06.000Z,277.99
2022-11-26T18:18:12.000Z,277.97
2022-11-26T18:19:39.000Z,278
2022-11-26T18:21:49.000Z,278
2022-11-26T18:23:16.000Z,278
2022-11-26T18:25:22.000Z,278
2022-11-26T18:26:48.000Z,278
2022-11-26T18:28:54.000Z,277.97
2022-11-26T18:30:21.000Z,277.96
2022-11-26T18:32:27.000Z,277.96
2022-11-26T18:35:18.000Z,277.97
2022-11-26T18:36:45.000Z,277.97
2022-11-26T18:38:58.000Z,277.97
2022-11-26T18:40:24.000Z,277.97
2022-11-26T18:42:30.000Z,277.97
2022-11-26T18:44:04.000Z,277.95
2022-11-26T18:47:43.000Z,277.96
2022-11-26T18:48:17.000Z,277.95
2022-11-26T18:49:43.000Z,277.95
2022-11-26T18:51:53.000Z,277.96
2022-11-26T18:53:20.000Z,277.95
2022-11-26T18:55:26.000Z,277.93
2022-11-26T18:56:53.000Z,277.95
2022-11-26T18:58:59.000Z,277.93
2022-11-26T19:00:25.000Z,277.95
2022-11-26T19:02:31.000Z,277.96
2022-11-26T19:03:58.000Z,277.95
2022-11-26T19:06:04.000Z,277.95
2022-11-26T19:07:30.000Z,277.92
2022-11-26T19:09:37.000Z,277.92
2022-11-26T19:11:04.000Z,277.89
2022-11-26T19:13:10.000Z,277.88
2022-11-26T19:15:55.000Z,277.86
2022-11-26T19:17:21.000Z,277.84
2022-11-26T19:19:27.000Z,277.82
2022-11-26T19:20:54.000Z,277.79
2022-11-26T19:23:00.000Z,277.78
2022-11-26T19:24:26.000Z,277.75
2022-11-26T19:26:33.000Z,277.74
2022-11-26T19:27:59.000Z,277.72
2022-11-26T19:30:10.000Z,277.71
2022-11-26T19:31:37.000Z,277.68
2022-11-26T19:33:43.000Z,277.67
2022-11-26T19:35:10.000Z,277.63
2022-11-26T19:37:16.000Z,277.59
2022-11-26T19:38:42.000Z,277.56
2022-11-26T19:40:48.000Z,277.52
2022-11-26T19:42:15.000Z,277.48
2022-11-26T19:44:21.000Z,277.46
2022-11-26T19:45:47.000Z,277.43
2022-11-26T19:47:54.000Z,277.43
2022-11-26T19:49:20.000Z,277.41
2022-11-26T19:51:26.000Z,277.41
2022-11-26T19:54:18.000Z,277.45
2022-11-26T19:55:44.000Z,277.49
2022-11-26T19:57:50.000Z,277.49
2022-11-26T19:59:17.000Z,277.49
2022-11-26T20:01:23.000Z,277.49
2022-11-26T20:02:50.000Z,277.51
2022-11-26T20:04:56.000Z,277.51
2022-11-26T20:06:22.000Z,277.51
2022-11-26T20:08:29.000Z,277.51
2022-11-26T20:09:55.000Z,277.51
2022-11-26T20:12:01.000Z,277.49
2022-11-26T20:13:28.000Z,277.52
2022-11-26T20:15:34.000Z,277.56
2022-11-26T20:17:00.000Z,277.6
2022-11-26T20:19:07.000Z,277.61
2022-11-26T20:20:34.000Z,277.61
2022-11-26T20:22:40.000Z,277.63
2022-11-26T20:24:06.000Z,277.63
2022-11-26T20:26:12.000Z,277.63
2022-11-26T20:27:39.000Z,277.63
2022-11-26T20:29:45.000Z,277.64
2022-11-26T20:32:36.000Z,277.65
2022-11-26T20:34:03.000Z,277.65
2022-11-26T20:36:09.000Z,277.64
2022-11-26T20:37:35.000Z,277.64
2022-11-26T20:39:41.000Z,277.63
2022-11-26T20:41:09.000Z,277.63
2022-11-26T20:43:15.000Z,277.63
2022-11-26T20:44:41.000Z,277.61
2022-11-26T20:46:47.000Z,277.6
2022-11-26T20:48:14.000Z,277.6
2022-11-26T20:50:20.000Z,277.59
2022-11-26T20:51:46.000Z,277.59
2022-11-26T20:53:53.000Z,277.56
2022-11-26T20:55:19.000Z,277.59
2022-11-26T20:57:25.000Z,277.56
2022-11-26T20:58:52.000Z,277.56
2022-11-26T21:00:58.000Z,277.55
2022-11-26T21:02:24.000Z,277.53
2022-11-26T21:04:31.000Z,277.53
2022-11-26T21:05:57.000Z,277.52
2022-11-26T21:08:03.000Z,277.52
2022-11-26T21:10:55.000Z,277.52
2022-11-26T21:12:21.000Z,277.51
2022-11-26T21:14:27.000Z,277.51
2022-11-26T21:15:54.000Z,277.48
2022-11-26T21:18:00.000Z,277.49
2022-11-26T21:19:26.000Z,277.48
2022-11-26T21:21:32.000Z,277.46
2022-11-26T21:22:59.000Z,277.46
2022-11-26T21:25:05.000Z,277.45
2022-11-26T21:26:31.000Z,277.45
2022-11-26T21:28:38.000Z,277.43
2022-11-26T21:30:04.000Z,277.41
2022-11-26T21:32:10.000Z,277.41
2022-11-26T21:33:37.000Z,277.38
2022-11-26T21:35:43.000Z,277.38
2022-11-26T21:37:09.000Z,277.36
2022-11-26T21:39:15.000Z,277.33
2022-11-26T21:40:42.000Z,277.29
2022-11-26T21:42:48.000Z,277.25
2022-11-26T21:44:14.000Z,277.22
2022-11-26T21:46:20.000Z,277.19
2022-11-26T21:49:12.000Z,277.15
2022-11-26T21:50:38.000Z,277.12
2022-11-26T21:52:44.000Z,277.12
2022-11-26T21:54:11.000Z,277.09
2022-11-26T21:56:17.000Z,277.06
2022-11-26T21:57:44.000Z,277.02
2022-11-26T21:59:50.000Z,277.01
2022-11-26T22:01:16.000Z,276.97
2022-11-26T22:03:23.000Z,276.94
2022-11-26T22:04:49.000Z,276.9
2022-11-26T22:06:56.000Z,276.87
2022-11-26T22:08:22.000Z,276.88
2022-11-26T22:10:29.000Z,276.9
2022-11-26T22:12:02.000Z,276.87
2022-11-26T22:14:08.000Z,276.84
2022-11-26T22:15:34.000Z,276.84
2022-11-26T22:17:41.000Z,276.79
2022-11-26T22:19:07.000Z,276.77
2022-11-26T22:21:14.000Z,276.73
2022-11-26T22:22:40.000Z,276.72
2022-11-26T22:24:46.000Z,276.7
2022-11-26T22:27:37.000Z,276.68
2022-11-26T22:29:04.000Z,276.7
2022-11-26T22:31:10.000Z,276.72
2022-11-26T22:32:36.000Z,276.72
2022-11-26T22:34:43.000Z,276.72
2022-11-26T22:36:09.000Z,276.73
2022-11-26T22:38:15.000Z,276.74
2022-11-26T22:39:42.000Z,276.79
2022-11-26T22:41:48.000Z,276.8
2022-11-26T22:43:14.000Z,276.91
2022-11-26T22:45:21.000Z,276.97
2022-11-26T22:46:47.000Z,276.99
2022-11-26T22:48:53.000Z,277.02
2022-11-26T22:50:20.000Z,277.06
2022-11-26T22:52:26.000Z,277.08
2022-11-26T22:53:52.000Z,277.11